PST,Max TemperatureF,Mean TemperatureF,Min TemperatureF,Max Dew PointF,MeanDew PointF,Min DewpointF,Max Humidity, Mean Humidity, Min Humidity, Max Sea Level PressureIn, Mean Sea Level PressureIn, Min Sea Level PressureIn, Max VisibilityMiles, Mean VisibilityMiles, Min VisibilityMiles, Max Wind SpeedMPH, Mean Wind SpeedMPH, Max Gust SpeedMPH,PrecipitationIn, CloudCover, Events, WindDirDegrees
2012-11-1,68,61,54,59,57,51,100,84,68,30.08,30.04,30.01,10,10,6,12,2,15,0.25,5,Rain,339
2012-11-2,66,57,48,51,49,45,89,73,56,30.11,30.08,30.05,10,10,10,12,3,15,0.00,0,,341
2012-11-3,73,62,50,55,50,47,89,68,46,30.17,30.13,30.09,10,10,10,10,2,13,0.00,0,,342
2012-11-4,80,66,52,56,53,49,93,65,36,30.23,30.17,30.14,10,10,10,10,3,16,0.00,0,,334
2012-11-5,83,68,53,58,53,48,89,62,34,30.17,30.10,30.05,10,10,10,9,2,12,0.00,0,,323
2012-11-6,79,67,54,57,53,50,89,64,39,30.10,30.05,30.01,10,10,9,10,2,12,0.00,0,,340
2012-11-7,64,60,55,55,53,47,93,83,72,30.08,30.03,29.99,10,8,2,14,4,16,0.00,4,,315
2012-11-8,62,54,45,50,44,40,80,63,46,30.00,29.96,29.93,10,10,2,15,4,25,0.03,4,Rain,252
2012-11-9,58,52,45,44,40,34,89,65,40,30.02,29.96,29.92,10,10,10,15,4,21,0.02,2,Rain,265
2012-11-10,60,52,43,41,38,36,89,66,42,30.27,30.14,30.02,10,10,10,18,5,21,0.00,0,,307
2012-11-11,61,50,39,43,37,30,85,59,32,30.40,30.35,30.29,10,10,10,10,2,12,0.00,0,,342
2012-11-12,63,52,40,40,38,36,86,63,39,30.40,30.34,30.27,10,10,10,9,2,12,0.00,0,,310
2012-11-13,68,55,42,46,39,33,82,57,32,30.29,30.19,30.10,10,10,10,10,2,14,0.00,0,,331
2012-11-14,70,58,45,47,44,41,86,63,40,30.14,30.08,30.03,10,10,10,10,2,12,0.00,0,,314
2012-11-15,68,56,43,49,44,40,89,71,52,30.04,30.01,29.96,10,10,8,9,2,13,0.00,0,,41
2012-11-16,68,59,50,57,52,45,90,76,62,30.01,29.95,29.87,10,10,10,18,5,22,0.06,7,Rain,138
2012-11-17,65,60,54,59,55,48,93,75,56,30.04,29.94,29.84,10,9,2,16,7,22,0.31,7,Rain,170
2012-11-18,64,58,51,54,49,42,100,74,48,30.19,30.11,30.03,10,9,2,9,2,13,0.09,4,Rain,42
2012-11-19,68,60,51,48,44,41,77,60,42,30.25,30.21,30.19,10,10,10,16,6,20,0.00,2,,140
2012-11-20,67,62,56,55,52,47,80,72,63,30.19,30.13,30.07,10,10,10,18,11,29,T,6,,138
2012-11-21,66,58,49,58,54,41,100,80,60,30.24,30.15,30.05,10,8,2,17,5,24,0.32,5,Rain,3
2012-11-22,65,55,44,47,44,41,92,70,48,30.28,30.23,30.19,10,10,10,12,3,31,0.00,0,,323
2012-11-23,68,55,42,49,45,40,93,71,48,30.28,30.23,30.18,10,10,10,9,1,18,0.00,0,,347
2012-11-24,68,56,44,52,47,42,92,74,56,30.21,30.13,30.06,10,10,10,10,1,26,0.00,0,,354
2012-11-25,59,53,47,52,50,45,100,90,80,30.05,30.02,29.96,10,5,1,9,0,16,0.00,6,,5
2012-11-26,61,52,42,52,46,41,100,85,69,30.10,30.04,30.00,10,5,0,12,2,14,0.00,4,Fog,340
2012-11-27,65,58,50,50,48,46,93,75,56,30.13,30.08,30.02,10,8,3,13,5,17,0.00,4,,139
2012-11-28,65,59,52,61,52,47,100,82,63,30.08,29.97,29.88,10,9,3,21,8,30,0.20,4,Rain,141
2012-11-29,63,60,56,58,54,49,90,77,64,30.07,30.00,29.91,10,9,3,16,10,25,0.12,5,Rain,138
2012-11-30,65,62,58,60,57,52,97,85,73,30.05,29.93,29.85,10,7,1,17,6,24,1.40,8,Rain,143